Time;durP1;ratioP1;P1;durP2;ratioP2;P2;SDS_P1;SDS_P2;PMS_P1;PMS_P2;Temp;Humidity;BMP_temperature;BMP_pressure;BME280_temperature;BME280_humidity;BME280_pressure;Samples;Min_cycle;Max_cycle;Signal;HPM_P1;HPM_P2
2022/02/17 00:02:16;;;;;;;14.90;3.05;;;;;;;;;;5021295;28;20041;-71
2022/02/17 00:04:42;;;;;;;12.90;2.13;;;;;;;;;;4990273;28;20045;-70
2022/02/17 00:07:08;;;;;;;18.33;2.70;;;;;;;;;;5018129;28;20037;-71
2022/02/17 00:09:35;;;;;;;12.90;2.22;;;;;;;;;;5013277;28;20045;-70
2022/02/17 00:12:01;;;;;;;11.50;2.85;;;;;;;;;;5022101;28;20038;-71
2022/02/17 00:14:27;;;;;;;10.55;1.70;;;;;;;;;;5014338;28;20054;-71
2022/02/17 00:16:53;;;;;;;18.80;2.90;;;;;;;;;;5021679;28;20056;-69
2022/02/17 00:19:20;;;;;;;14.10;2.20;;;;;;;;;;5014087;28;20046;-68
2022/02/17 00:21:47;;;;;;;9.43;2.25;;;;;;;;;;5010231;28;20067;-69
2022/02/17 00:24:14;;;;;;;9.30;1.98;;;;;;;;;;5021204;28;20072;-68
2022/02/17 00:26:41;;;;;;;6.47;1.52;;;;;;;;;;5009344;28;20057;-69
2022/02/17 00:29:07;;;;;;;10.95;2.03;;;;;;;;;;5021974;28;20389;-69
2022/02/17 00:31:33;;;;;;;12.43;2.17;;;;;;;;;;5019401;28;20056;-69
2022/02/17 00:34:00;;;;;;;8.77;1.80;;;;;;;;;;5015557;28;20045;-69
2022/02/17 00:36:26;;;;;;;10.85;1.98;;;;;;;;;;5020654;28;20487;-69
2022/02/17 00:38:53;;;;;;;14.98;2.28;;;;;;;;;;5013470;28;20045;-69
2022/02/17 00:41:19;;;;;;;11.65;1.80;;;;;;;;;;5020479;28;20082;-68
2022/02/17 00:43:47;;;;;;;14.25;2.00;;;;;;;;;;5010831;28;20041;-69
2022/02/17 00:46:13;;;;;;;10.00;2.50;;;;;;;;;;5015340;28;20133;-69
2022/02/17 00:48:39;;;;;;;10.18;2.33;;;;;;;;;;5017475;28;20060;-68
2022/02/17 00:51:06;;;;;;;8.50;1.77;;;;;;;;;;5011496;28;20045;-69
2022/02/17 00:53:33;;;;;;;9.02;2.05;;;;;;;;;;5018534;28;20050;-69
2022/02/17 00:55:59;;;;;;;12.05;2.35;;;;;;;;;;5010278;28;20055;-68
2022/02/17 00:58:25;;;;;;;8.73;1.70;;;;;;;;;;5016276;28;20056;-68
2022/02/17 01:00:52;;;;;;;16.92;2.38;;;;;;;;;;5004383;28;20045;-68
2022/02/17 01:03:18;;;;;;;16.50;2.20;;;;;;;;;;5015547;28;20057;-69
2022/02/17 01:05:44;;;;;;;19.92;2.92;;;;;;;;;;5022595;28;20057;-69
2022/02/17 01:08:10;;;;;;;16.20;2.90;;;;;;;;;;5011827;28;20578;-70
2022/02/17 01:10:37;;;;;;;12.57;2.30;;;;;;;;;;5021669;28;20064;-70
2022/02/17 01:13:03;;;;;;;15.65;2.25;;;;;;;;;;5010188;28;20064;-70
2022/02/17 01:15:30;;;;;;;10.10;2.65;;;;;;;;;;5016000;28;20399;-70
2022/02/17 01:17:57;;;;;;;16.17;2.47;;;;;;;;;;5014425;28;20056;-70
2022/02/17 01:20:23;;;;;;;9.57;1.42;;;;;;;;;;5020626;28;20053;-70
2022/02/17 01:22:50;;;;;;;5.30;1.20;;;;;;;;;;5020281;28;20049;-70
2022/02/17 01:25:16;;;;;;;4.18;1.10;;;;;;;;;;5005586;28;20060;-71
2022/02/17 01:27:42;;;;;;;6.40;1.02;;;;;;;;;;5014945;28;20046;-70
2022/02/17 01:30:09;;;;;;;5.60;1.00;;;;;;;;;;5008791;28;20058;-71
2022/02/17 01:32:36;;;;;;;4.55;1.02;;;;;;;;;;5021372;28;20049;-70
2022/02/17 01:35:02;;;;;;;10.07;2.15;;;;;;;;;;5019076;28;20087;-71
2022/02/17 01:37:28;;;;;;;9.32;2.30;;;;;;;;;;5012766;28;20375;-69
2022/02/17 01:39:55;;;;;;;9.40;1.50;;;;;;;;;;5018051;28;20057;-70
2022/02/17 01:42:21;;;;;;;10.57;2.00;;;;;;;;;;5006326;28;20049;-71
2022/02/17 01:44:51;;;;;;;9.07;1.48;;;;;;;;;;5013521;28;20423;-71
2022/02/17 01:47:17;;;;;;;11.98;1.80;;;;;;;;;;5009379;28;20053;-71
2022/02/17 01:49:44;;;;;;;7.85;1.90;;;;;;;;;;5013389;28;20049;-71
2022/02/17 01:52:11;;;;;;;13.25;2.53;;;;;;;;;;5020267;28;20056;-71
2022/02/17 01:54:39;;;;;;;17.15;2.63;;;;;;;;;;5005451;28;20142;-71
2022/02/17 01:57:08;;;;;;;12.25;2.25;;;;;;;;;;5017273;28;20049;-71
2022/02/17 01:59:34;;;;;;;12.68;2.40;;;;;;;;;;5011821;28;20049;-71
2022/02/17 02:02:01;;;;;;;20.52;2.88;;;;;;;;;;5023046;28;20398;-71
2022/02/17 02:04:27;;;;;;;26.17;3.83;;;;;;;;;;5012552;28;20057;-71
2022/02/17 02:06:53;;;;;;;20.83;3.17;;;;;;;;;;5001773;28;20045;-71
2022/02/17 02:09:19;;;;;;;17.05;3.15;;;;;;;;;;5016414;28;20434;-70
2022/02/17 02:11:46;;;;;;;23.05;3.45;;;;;;;;;;5007838;28;20061;-71
2022/02/17 02:14:16;;;;;;;25.77;4.22;;;;;;;;;;5018113;28;20048;-70
2022/02/17 02:16:44;;;;;;;22.98;3.72;;;;;;;;;;5011060;28;20046;-70
2022/02/17 02:19:11;;;;;;;17.13;3.22;;;;;;;;;;5019493;28;20061;-70
2022/02/17 02:21:37;;;;;;;27.23;3.90;;;;;;;;;;5011816;28;20056;-71
2022/02/17 02:24:04;;;;;;;24.05;3.58;;;;;;;;;;5012868;28;20041;-71
2022/02/17 02:26:30;;;;;;;23.83;3.75;;;;;;;;;;5015718;28;20037;-70
2022/02/17 02:28:59;;;;;;;20.73;3.50;;;;;;;;;;5010393;28;20053;-70
2022/02/17 02:31:25;;;;;;;21.83;3.78;;;;;;;;;;5013870;28;20052;-70
2022/02/17 02:33:52;;;;;;;19.98;3.20;;;;;;;;;;5022497;28;20450;-68
2022/02/17 02:36:18;;;;;;;25.73;3.78;;;;;;;;;;5022745;28;20061;-68
2022/02/17 02:38:55;;;;;;;20.05;3.20;;;;;;;;;;5003904;28;20504;-68
2022/02/17 02:41:21;;;;;;;22.77;3.45;;;;;;;;;;5020478;28;20057;-68
2022/02/17 02:43:50;;;;;;;20.08;3.67;;;;;;;;;;5019018;28;20156;-68
2022/02/17 02:46:16;;;;;;;27.15;4.15;;;;;;;;;;5010528;28;20120;-68
2022/02/17 02:48:43;;;;;;;20.83;4.75;;;;;;;;;;5013737;28;20045;-68
2022/02/17 02:51:09;;;;;;;21.23;3.72;;;;;;;;;;5006057;28;20642;-68
2022/02/17 02:53:35;;;;;;;19.85;3.30;;;;;;;;;;5015886;28;20056;-68
2022/02/17 02:56:02;;;;;;;19.17;3.50;;;;;;;;;;5009199;28;20049;-68
2022/02/17 02:58:28;;;;;;;22.92;3.33;;;;;;;;;;5019503;28;20045;-68
2022/02/17 03:00:54;;;;;;;19.42;3.70;;;;;;;;;;5019482;28;20049;-70
2022/02/17 03:03:21;;;;;;;24.92;3.95;;;;;;;;;;5011654;28;20095;-69
2022/02/17 03:05:47;;;;;;;18.73;3.17;;;;;;;;;;5015891;28;20056;-68
2022/02/17 03:08:13;;;;;;;31.67;4.85;;;;;;;;;;5006843;28;20431;-68
2022/02/17 03:10:40;;;;;;;24.30;3.30;;;;;;;;;;5021048;28;20383;-68
2022/02/17 03:13:07;;;;;;;24.80;4.00;;;;;;;;;;5012403;28;20509;-68
2022/02/17 03:15:33;;;;;;;29.25;3.83;;;;;;;;;;5021087;28;20053;-67
2022/02/17 03:18:01;;;;;;;16.70;3.13;;;;;;;;;;5022393;28;20513;-68
2022/02/17 03:20:28;;;;;;;21.42;3.17;;;;;;;;;;5007763;28;20615;-67
2022/02/17 03:22:54;;;;;;;17.00;3.05;;;;;;;;;;5023502;28;20050;-67
2022/02/17 03:25:20;;;;;;;20.85;3.15;;;;;;;;;;5015313;28;20045;-68
2022/02/17 03:27:46;;;;;;;18.05;2.92;;;;;;;;;;5025740;28;20531;-68
2022/02/17 03:30:13;;;;;;;23.02;3.10;;;;;;;;;;5016896;28;20049;-68
2022/02/17 03:32:39;;;;;;;20.52;3.80;;;;;;;;;;5020308;28;20351;-68
2022/02/17 03:35:06;;;;;;;19.50;3.58;;;;;;;;;;5019945;28;20045;-68
2022/02/17 03:37:33;;;;;;;19.45;2.97;;;;;;;;;;5016547;28;20061;-68
2022/02/17 03:39:59;;;;;;;11.98;2.30;;;;;;;;;;5024263;28;20045;-68
2022/02/17 03:42:26;;;;;;;16.42;3.13;;;;;;;;;;5015489;28;20092;-68
2022/02/17 03:44:53;;;;;;;17.25;3.50;;;;;;;;;;5023007;28;20469;-68
2022/02/17 03:47:19;;;;;;;16.60;3.80;;;;;;;;;;5010377;28;20084;-69
2022/02/17 03:49:46;;;;;;;13.02;2.45;;;;;;;;;;5021519;28;20053;-67
2022/02/17 03:52:12;;;;;;;18.08;3.15;;;;;;;;;;5022920;28;20052;-68
2022/02/17 03:54:38;;;;;;;19.88;2.63;;;;;;;;;;5012778;28;20041;-68
2022/02/17 03:57:05;;;;;;;18.88;2.47;;;;;;;;;;5022033;28;20053;-68
2022/02/17 03:59:31;;;;;;;17.35;2.60;;;;;;;;;;5012577;28;20399;-67
2022/02/17 04:01:58;;;;;;;14.45;2.67;;;;;;;;;;5017554;28;20049;-67
2022/02/17 04:04:24;;;;;;;16.73;3.35;;;;;;;;;;5014561;28;20053;-67
2022/02/17 04:06:50;;;;;;;16.58;2.78;;;;;;;;;;5020583;28;20128;-67
2022/02/17 04:09:17;;;;;;;17.25;2.95;;;;;;;;;;5024372;28;20049;-67
2022/02/17 04:11:43;;;;;;;18.67;4.00;;;;;;;;;;5012156;28;20053;-67
2022/02/17 04:14:09;;;;;;;20.90;3.58;;;;;;;;;;5018096;28;20049;-67
2022/02/17 04:16:36;;;;;;;15.95;2.65;;;;;;;;;;5008173;28;20050;-67
2022/02/17 04:19:02;;;;;;;23.58;3.40;;;;;;;;;;5029685;28;20053;-67
2022/02/17 04:21:28;;;;;;;16.35;2.65;;;;;;;;;;5018418;28;20088;-67
2022/02/17 04:23:55;;;;;;;13.75;2.63;;;;;;;;;;5019370;28;20049;-67
2022/02/17 04:26:21;;;;;;;12.05;2.38;;;;;;;;;;5022500;28;20053;-68
2022/02/17 04:28:48;;;;;;;16.48;2.30;;;;;;;;;;5006853;28;20286;-67
2022/02/17 04:31:15;;;;;;;20.48;3.05;;;;;;;;;;5019474;28;20060;-67
2022/02/17 04:33:42;;;;;;;18.75;3.05;;;;;;;;;;5009894;28;20057;-67
2022/02/17 04:36:08;;;;;;;19.63;3.10;;;;;;;;;;5023655;28;20446;-67
2022/02/17 04:38:34;;;;;;;23.00;3.28;;;;;;;;;;5022914;28;20045;-67
2022/02/17 04:43:46;;;;;;;20.17;3.38;;;;;;;;;;5017625;28;20056;-67
2022/02/17 04:46:12;;;;;;;18.40;3.10;;;;;;;;;;5013939;28;20059;-67
2022/02/17 04:48:39;;;;;;;26.15;4.82;;;;;;;;;;5021955;28;20058;-67
2022/02/17 04:51:05;;;;;;;25.38;4.07;;;;;;;;;;5014009;28;20049;-67
2022/02/17 04:53:32;;;;;;;21.58;3.20;;;;;;;;;;5021324;28;20053;-67
2022/02/17 04:55:58;;;;;;;23.23;3.72;;;;;;;;;;5012936;28;20053;-67
2022/02/17 04:58:25;;;;;;;20.10;3.40;;;;;;;;;;5012819;28;20578;-67
2022/02/17 05:00:51;;;;;;;18.17;2.90;;;;;;;;;;5021528;28;20053;-67
2022/02/17 05:03:19;;;;;;;27.45;4.82;;;;;;;;;;5014952;28;20149;-67
2022/02/17 05:05:45;;;;;;;18.27;3.33;;;;;;;;;;5019761;28;20080;-67
2022/02/17 05:08:11;;;;;;;21.05;3.22;;;;;;;;;;5012116;28;20053;-67
2022/02/17 05:10:38;;;;;;;22.13;3.05;;;;;;;;;;5014905;28;20038;-67
2022/02/17 05:13:05;;;;;;;16.60;2.50;;;;;;;;;;5022227;28;20491;-67
2022/02/17 05:15:32;;;;;;;21.85;3.40;;;;;;;;;;5012389;28;20067;-67
2022/02/17 05:17:58;;;;;;;20.85;3.03;;;;;;;;;;5020900;28;20517;-66
2022/02/17 05:20:24;;;;;;;25.40;3.50;;;;;;;;;;5013638;28;20046;-67
2022/02/17 05:22:51;;;;;;;21.33;4.25;;;;;;;;;;5016029;28;20049;-67
2022/02/17 05:25:17;;;;;;;21.65;3.95;;;;;;;;;;5010867;28;20523;-67
2022/02/17 05:27:43;;;;;;;23.83;3.78;;;;;;;;;;5020408;28;20041;-67
2022/02/17 05:30:10;;;;;;;23.05;3.85;;;;;;;;;;5021452;28;20054;-67
2022/02/17 05:32:40;;;;;;;20.88;3.47;;;;;;;;;;5009164;28;20049;-67
2022/02/17 05:35:07;;;;;;;24.15;4.13;;;;;;;;;;5020558;28;20062;-67
2022/02/17 05:37:34;;;;;;;25.75;4.47;;;;;;;;;;5007619;28;20049;-67
2022/02/17 05:40:00;;;;;;;23.73;4.72;;;;;;;;;;5015441;28;20053;-67
2022/02/17 05:42:29;;;;;;;;;;;;;;;;;;5008850;28;20049;-68
2022/02/17 05:44:55;;;;;;;25.58;4.60;;;;;;;;;;5021158;28;19963;-67
2022/02/17 05:47:21;;;;;;;28.45;4.07;;;;;;;;;;5022180;28;20383;-68
2022/02/17 05:49:48;;;;;;;17.20;2.63;;;;;;;;;;5014205;28;20431;-67
2022/02/17 05:52:14;;;;;;;15.43;3.08;;;;;;;;;;5013436;28;20041;-67
2022/02/17 05:54:40;;;;;;;17.02;2.75;;;;;;;;;;5011152;28;20056;-67
2022/02/17 05:57:07;;;;;;;15.93;3.25;;;;;;;;;;5019851;28;20045;-68
2022/02/17 05:59:33;;;;;;;13.60;2.17;;;;;;;;;;5014341;28;20045;-68
2022/02/17 06:01:59;;;;;;;18.30;2.47;;;;;;;;;;5021585;28;20057;-67
2022/02/17 06:04:26;;;;;;;14.77;2.05;;;;;;;;;;5018435;28;20383;-68
2022/02/17 06:06:52;;;;;;;11.90;3.08;;;;;;;;;;5005770;28;20049;-67
2022/02/17 06:09:18;;;;;;;14.45;2.30;;;;;;;;;;5021764;28;20585;-68
2022/02/17 06:11:44;;;;;;;13.82;2.22;;;;;;;;;;5011928;28;20045;-68
2022/02/17 06:14:11;;;;;;;14.57;2.97;;;;;;;;;;5022373;28;20049;-67
2022/02/17 06:16:37;;;;;;;12.63;2.53;;;;;;;;;;5014980;28;20042;-68
2022/02/17 06:19:03;;;;;;;20.30;2.67;;;;;;;;;;5031898;28;20056;-67
2022/02/17 06:21:30;;;;;;;14.60;2.03;;;;;;;;;;5015687;28;20049;-68
2022/02/17 06:23:56;;;;;;;16.10;2.72;;;;;;;;;;5011900;28;20042;-67
2022/02/17 06:26:22;;;;;;;15.32;3.03;;;;;;;;;;5019370;28;20053;-67
2022/02/17 06:28:49;;;;;;;15.02;2.55;;;;;;;;;;5011650;28;20054;-67
2022/02/17 06:31:15;;;;;;;16.45;2.75;;;;;;;;;;5019137;28;20053;-67
2022/02/17 06:33:41;;;;;;;16.63;2.55;;;;;;;;;;5008036;28;20049;-67
2022/02/17 06:36:09;;;;;;;17.75;3.03;;;;;;;;;;5018333;28;20503;-67
2022/02/17 06:38:36;;;;;;;;;;;;;;;;;;5020662;28;20045;-67
2022/02/17 06:41:05;;;;;;;11.25;1.75;;;;;;;;;;5010663;28;20039;-68
2022/02/17 06:43:35;;;;;;;12.20;1.83;;;;;;;;;;5020103;28;20278;-67
2022/02/17 06:46:01;;;;;;;13.70;2.08;;;;;;;;;;5011165;28;20399;-68
2022/02/17 06:48:27;;;;;;;10.65;2.17;;;;;;;;;;5019752;28;20050;-68
2022/02/17 06:50:53;;;;;;;11.75;2.28;;;;;;;;;;5012796;28;20749;-68
2022/02/17 06:53:20;;;;;;;13.57;2.38;;;;;;;;;;5018142;28;20053;-67
2022/02/17 06:55:47;;;;;;;14.50;1.70;;;;;;;;;;5016023;28;20052;-67
2022/02/17 06:58:16;;;;;;;10.15;1.67;;;;;;;;;;5008905;28;20416;-67
2022/02/17 07:00:43;;;;;;;11.77;2.40;;;;;;;;;;5019978;28;20531;-67
2022/02/17 07:03:10;;;;;;;16.40;2.25;;;;;;;;;;5008830;28;20096;-68
2022/02/17 07:05:37;;;;;;;16.55;2.78;;;;;;;;;;5019868;28;20391;-67
2022/02/17 07:08:06;;;;;;;14.35;2.33;;;;;;;;;;5012524;28;20483;-68
2022/02/17 07:13:18;;;;;;;12.20;2.13;;;;;;;;;;5018570;28;20057;-67
2022/02/17 07:15:46;;;;;;;12.07;2.03;;;;;;;;;;5011627;28;20049;-67
2022/02/17 07:18:12;;;;;;;10.88;2.03;;;;;;;;;;5025757;28;20049;-67
2022/02/17 07:20:39;;;;;;;8.88;2.08;;;;;;;;;;5014743;28;20747;-67
2022/02/17 07:23:08;;;;;;;8.43;1.67;;;;;;;;;;5016107;28;20041;-67
2022/02/17 07:25:35;;;;;;;9.93;2.30;;;;;;;;;;5003313;28;20049;-67
2022/02/17 07:28:01;;;;;;;13.48;2.15;;;;;;;;;;5008414;28;20503;-67
2022/02/17 07:30:27;;;;;;;9.88;1.60;;;;;;;;;;5015158;28;20439;-68
2022/02/17 07:32:54;;;;;;;10.32;1.67;;;;;;;;;;4990309;28;20049;-67
2022/02/17 07:35:20;;;;;;;11.15;1.50;;;;;;;;;;5018427;28;20072;-67
2022/02/17 07:37:47;;;;;;;10.00;1.65;;;;;;;;;;5006104;28;20041;-67
2022/02/17 07:40:15;;;;;;;10.73;1.50;;;;;;;;;;5018604;28;20517;-67
2022/02/17 07:42:43;;;;;;;14.93;2.67;;;;;;;;;;5009866;28;20508;-68
2022/02/17 07:45:13;;;;;;;15.20;1.90;;;;;;;;;;5019742;28;20144;-68
2022/02/17 07:47:44;;;;;;;16.67;1.88;;;;;;;;;;5012114;28;20431;-67
2022/02/17 07:50:15;;;;;;;12.35;2.13;;;;;;;;;;5000855;28;20459;-67
2022/02/17 07:52:41;;;;;;;10.05;1.48;;;;;;;;;;5010522;28;20687;-67
2022/02/17 07:55:08;;;;;;;11.55;1.70;;;;;;;;;;5002658;28;20049;-68
2022/02/17 07:57:35;;;;;;;15.25;2.50;;;;;;;;;;5012597;28;20045;-68
2022/02/17 08:00:02;;;;;;;13.43;2.60;;;;;;;;;;5012512;28;20589;-68
2022/02/17 08:02:29;;;;;;;13.88;2.47;;;;;;;;;;5014065;28;20048;-69
2022/02/17 08:04:55;;;;;;;8.85;1.63;;;;;;;;;;5007729;28;20045;-68
2022/02/17 08:07:21;;;;;;;10.38;1.63;;;;;;;;;;5009551;28;20044;-67
2022/02/17 08:09:48;;;;;;;11.27;1.92;;;;;;;;;;5017099;28;20045;-67
2022/02/17 08:12:14;;;;;;;8.45;1.67;;;;;;;;;;5011672;28;20433;-67
2022/02/17 08:14:43;;;;;;;15.38;2.20;;;;;;;;;;5015034;28;20574;-67
2022/02/17 08:17:09;;;;;;;13.60;1.60;;;;;;;;;;5009329;28;20045;-68
2022/02/17 08:19:36;;;;;;;14.90;2.30;;;;;;;;;;5006144;28;20584;-67
2022/02/17 08:22:02;;;;;;;10.43;2.40;;;;;;;;;;5010870;28;20045;-67
2022/02/17 08:24:29;;;;;;;16.60;2.00;;;;;;;;;;5007232;28;20056;-67
2022/02/17 08:26:56;;;;;;;15.45;2.15;;;;;;;;;;5019647;28;20072;-67
2022/02/17 08:29:23;;;;;;;10.90;1.77;;;;;;;;;;5014121;28;20059;-67
2022/02/17 08:31:49;;;;;;;11.00;1.80;;;;;;;;;;5021095;28;20060;-68
2022/02/17 08:34:16;;;;;;;12.52;1.98;;;;;;;;;;5011716;28;20056;-68
2022/02/17 08:36:43;;;;;;;10.95;1.77;;;;;;;;;;5013982;28;20045;-68
2022/02/17 08:39:09;;;;;;;14.15;2.30;;;;;;;;;;5021573;28;20072;-68
2022/02/17 08:41:36;;;;;;;12.57;1.70;;;;;;;;;;5006112;28;20038;-68
2022/02/17 08:44:06;;;;;;;11.13;1.90;;;;;;;;;;5017258;28;20048;-68
2022/02/17 08:46:33;;;;;;;11.23;1.90;;;;;;;;;;4999653;28;20077;-68
2022/02/17 08:49:03;;;;;;;6.07;1.13;;;;;;;;;;5012868;28;20041;-68
2022/02/17 08:51:30;;;;;;;10.32;2.03;;;;;;;;;;4999548;28;20056;-68
2022/02/17 08:53:56;;;;;;;13.07;2.10;;;;;;;;;;5018361;28;20077;-68
2022/02/17 08:56:23;;;;;;;13.43;2.00;;;;;;;;;;5019078;28;20447;-67
2022/02/17 08:58:50;;;;;;;12.63;1.70;;;;;;;;;;5015408;28;20045;-67
2022/02/17 09:01:16;;;;;;;11.75;1.83;;;;;;;;;;5016212;28;20045;-67
2022/02/17 09:03:42;;;;;;;9.23;1.77;;;;;;;;;;5007948;28;20298;-67
2022/02/17 09:06:09;;;;;;;9.80;1.58;;;;;;;;;;5021660;28;20056;-67
2022/02/17 09:08:41;;;;;;;12.63;1.83;;;;;;;;;;5015279;28;20065;-67
2022/02/17 09:11:07;;;;;;;7.07;1.20;;;;;;;;;;5017415;28;20076;-67
2022/02/17 09:13:33;;;;;;;11.18;1.80;;;;;;;;;;5020567;28;20052;-67
2022/02/17 09:16:00;;;;;;;9.65;1.70;;;;;;;;;;5006816;28;20053;-67
2022/02/17 09:18:26;;;;;;;5.50;1.30;;;;;;;;;;5019569;28;20119;-67
2022/02/17 09:20:53;;;;;;;12.30;1.40;;;;;;;;;;5014106;28;20061;-67
2022/02/17 09:23:19;;;;;;;14.30;1.98;;;;;;;;;;5020167;28;20311;-67
2022/02/17 09:25:46;;;;;;;10.07;1.60;;;;;;;;;;5019395;28;20048;-67
2022/02/17 09:28:12;;;;;;;9.85;1.60;;;;;;;;;;4999069;28;20300;-67
2022/02/17 09:30:38;;;;;;;11.68;1.70;;;;;;;;;;5011949;28;20145;-68
2022/02/17 09:33:05;;;;;;;9.75;1.17;;;;;;;;;;4998741;28;20771;-67
2022/02/17 09:35:33;;;;;;;10.43;1.42;;;;;;;;;;5016571;28;20050;-67
2022/02/17 09:38:00;;;;;;;11.10;1.80;;;;;;;;;;5010164;28;20504;-67
2022/02/17 09:40:26;;;;;;;9.75;1.52;;;;;;;;;;5022289;28;20509;-68
2022/02/17 09:42:52;;;;;;;7.22;1.23;;;;;;;;;;5015175;28;20041;-66
2022/02/17 09:45:20;;;;;;;9.00;1.45;;;;;;;;;;5010441;28;20052;-66
2022/02/17 09:47:46;;;;;;;9.93;1.25;;;;;;;;;;5020083;28;20462;-66
2022/02/17 09:50:14;;;;;;;10.32;1.48;;;;;;;;;;5010808;28;20045;-67
2022/02/17 09:52:42;;;;;;;12.00;1.20;;;;;;;;;;5019055;28;20064;-67
2022/02/17 09:55:12;;;;;;;11.07;1.27;;;;;;;;;;5011774;28;20049;-66
2022/02/17 09:57:39;;;;;;;9.27;1.20;;;;;;;;;;5015442;28;20064;-66
2022/02/17 10:00:07;;;;;;;9.50;1.30;;;;;;;;;;5017159;28;20055;-66
2022/02/17 10:02:33;;;;;;;6.68;1.42;;;;;;;;;;5015386;28;20061;-67
2022/02/17 10:05:02;;;;;;;10.23;1.70;;;;;;;;;;5020152;28;20057;-66
2022/02/17 10:07:30;;;;;;;6.78;1.42;;;;;;;;;;5012267;28;20045;-66
2022/02/17 10:10:02;;;;;;;8.98;1.50;;;;;;;;;;5016677;28;20045;-67
2022/02/17 10:12:48;;;;;;;9.57;1.52;;;;;;;;;;5008860;28;20046;-67
2022/02/17 10:15:23;;;;;;;7.45;2.05;;;;;;;;;;5019396;28;20045;-67
2022/02/17 10:18:03;;;;;;;9.75;1.40;;;;;;;;;;5014324;28;20057;-66
2022/02/17 10:20:48;;;;;;;10.10;1.50;;;;;;;;;;5016005;28;20487;-67
2022/02/17 10:23:15;;;;;;;12.02;2.15;;;;;;;;;;5009349;28;20053;-68
2022/02/17 10:25:55;;;;;;;11.68;1.20;;;;;;;;;;5003353;28;20049;-66
2022/02/17 10:28:21;;;;;;;5.30;1.02;;;;;;;;;;5017000;28;20057;-67
2022/02/17 10:30:49;;;;;;;9.40;1.83;;;;;;;;;;5013501;28;20088;-68
2022/02/17 10:33:16;;;;;;;11.13;1.83;;;;;;;;;;5021190;28;20391;-68
2022/02/17 10:35:55;;;;;;;12.15;1.73;;;;;;;;;;5015190;28;20049;-67
2022/02/17 10:38:22;;;;;;;8.82;1.55;;;;;;;;;;5016037;28;20064;-67
2022/02/17 10:40:54;;;;;;;9.90;1.92;;;;;;;;;;5004132;28;20049;-66
2022/02/17 10:43:22;;;;;;;8.30;1.33;;;;;;;;;;5015381;28;20061;-66
2022/02/17 10:45:49;;;;;;;6.47;1.42;;;;;;;;;;5020259;28;20159;-67
2022/02/17 10:48:16;;;;;;;6.32;1.35;;;;;;;;;;5012056;28;20041;-66
2022/02/17 10:51:07;;;;;;;4.18;1.20;;;;;;;;;;5020452;28;20045;-66
2022/02/17 10:53:35;;;;;;;7.90;1.35;;;;;;;;;;4995231;28;20051;-68
2022/02/17 10:56:04;;;;;;;11.00;1.13;;;;;;;;;;5015968;28;20230;-71
2022/02/17 10:58:30;;;;;;;;;;;;;;;;;;5013709;28;20526;-67
2022/02/17 11:00:57;;;;;;;6.88;1.20;;;;;;;;;;5020236;28;19944;-67
2022/02/17 11:03:29;;;;;;;9.18;1.58;;;;;;;;;;5018945;28;20136;-67
2022/02/17 11:06:12;;;;;;;8.23;1.48;;;;;;;;;;5014305;28;20081;-67
2022/02/17 11:08:39;;;;;;;8.35;1.38;;;;;;;;;;5014659;28;20057;-67
2022/02/17 11:11:06;;;;;;;7.18;1.60;;;;;;;;;;5012429;28;20580;-68
2022/02/17 11:13:33;;;;;;;10.52;1.67;;;;;;;;;;5018480;28;20049;-67
2022/02/17 11:16:07;;;;;;;9.93;1.70;;;;;;;;;;5013557;28;20093;-67
2022/02/17 11:18:33;;;;;;;15.68;2.15;;;;;;;;;;5019291;28;20083;-67
2022/02/17 11:21:00;;;;;;;6.97;1.02;;;;;;;;;;5009469;28;20053;-68
2022/02/17 11:23:28;;;;;;;7.57;1.23;;;;;;;;;;5013248;28;20499;-67
2022/02/17 11:25:55;;;;;;;10.93;1.95;;;;;;;;;;5021226;28;20064;-67
2022/02/17 11:28:29;;;;;;;11.68;1.80;;;;;;;;;;5011048;28;20060;-69
2022/02/17 11:30:57;;;;;;;6.45;1.10;;;;;;;;;;5000855;28;20057;-68
2022/02/17 11:33:23;;;;;;;7.78;1.33;;;;;;;;;;5013859;28;20696;-68
2022/02/17 11:36:10;;;;;;;9.48;1.35;;;;;;;;;;5011863;28;20566;-68
2022/02/17 11:38:37;;;;;;;10.55;1.50;;;;;;;;;;5001007;28;20053;-68
2022/02/17 11:41:11;;;;;;;10.25;1.58;;;;;;;;;;5022727;28;20049;-68
2022/02/17 11:43:39;;;;;;;6.75;1.23;;;;;;;;;;5013638;28;20053;-69
2022/02/17 11:46:16;;;;;;;7.95;1.40;;;;;;;;;;5020278;28;20058;-68
2022/02/17 11:48:44;;;;;;;6.47;1.38;;;;;;;;;;5017260;28;20050;-68
2022/02/17 11:51:14;;;;;;;6.72;1.10;;;;;;;;;;5013555;28;20072;-68
2022/02/17 11:53:42;;;;;;;7.40;1.20;;;;;;;;;;5022596;28;20622;-68
2022/02/17 11:56:21;;;;;;;6.53;1.30;;;;;;;;;;5016885;28;20056;-69
2022/02/17 11:58:48;;;;;;;7.35;1.33;;;;;;;;;;5023401;28;20302;-68
2022/02/17 12:01:30;;;;;;;10.75;1.17;;;;;;;;;;5015152;28;20716;-69
2022/02/17 12:04:05;;;;;;;9.20;1.65;;;;;;;;;;5016551;28;20065;-69
2022/02/17 12:06:52;;;;;;;7.47;1.27;;;;;;;;;;5018008;28;20519;-69
2022/02/17 12:09:28;;;;;;;12.37;1.17;;;;;;;;;;5023526;28;20057;-70
2022/02/17 12:12:26;;;;;;;9.73;1.65;;;;;;;;;;5024539;28;20068;-67
2022/02/17 12:14:54;;;;;;;6.25;1.40;;;;;;;;;;5022479;28;20060;-68
2022/02/17 12:17:27;;;;;;;8.52;1.38;;;;;;;;;;5017683;28;20060;-68
2022/02/17 12:20:02;;;;;;;7.45;1.30;;;;;;;;;;5012588;28;20517;-68
2022/02/17 12:22:28;;;;;;;10.75;1.75;;;;;;;;;;5022497;28;20465;-69
2022/02/17 12:25:10;;;;;;;12.15;1.42;;;;;;;;;;5014642;28;20053;-69
2022/02/17 12:27:37;;;;;;;6.80;1.73;;;;;;;;;;5021122;28;20432;-68
2022/02/17 12:30:03;;;;;;;7.38;1.40;;;;;;;;;;5009121;28;20061;-69
2022/02/17 12:32:30;;;;;;;8.02;1.27;;;;;;;;;;5016682;28;20060;-69
2022/02/17 12:34:56;;;;;;;8.60;1.13;;;;;;;;;;5021080;28;20629;-69
2022/02/17 12:37:22;;;;;;;9.35;1.27;;;;;;;;;;5016978;28;20053;-69
2022/02/17 12:39:54;;;;;;;8.85;1.38;;;;;;;;;;5021939;28;20092;-68
2022/02/17 12:42:21;;;;;;;9.95;1.17;;;;;;;;;;5013413;28;20049;-69
2022/02/17 12:44:49;;;;;;;10.85;1.63;;;;;;;;;;4999775;28;20419;-69
2022/02/17 12:47:15;;;;;;;7.83;1.30;;;;;;;;;;5011343;28;20056;-68
2022/02/17 12:49:42;;;;;;;7.68;1.45;;;;;;;;;;5021585;28;20849;-68
2022/02/17 12:52:09;;;;;;;13.90;1.80;;;;;;;;;;5023395;28;20386;-68
2022/02/17 12:54:36;;;;;;;8.43;1.27;;;;;;;;;;4995315;28;20045;-68
2022/02/17 12:57:16;;;;;;;6.35;1.05;;;;;;;;;;5023355;28;20554;-68
2022/02/17 12:59:43;;;;;;;6.47;1.40;;;;;;;;;;5007638;28;20060;-68
2022/02/17 13:02:10;;;;;;;8.63;1.67;;;;;;;;;;5021857;28;20050;-68
2022/02/17 13:04:39;;;;;;;10.02;1.45;;;;;;;;;;5015446;28;20072;-68
2022/02/17 13:07:08;;;;;;;9.93;1.52;;;;;;;;;;5011231;28;20064;-68
2022/02/17 13:09:35;;;;;;;10.48;1.30;;;;;;;;;;5016420;28;20396;-68
2022/02/17 13:12:06;;;;;;;10.38;2.22;;;;;;;;;;5018461;28;20051;-68
2022/02/17 13:14:42;;;;;;;5.80;1.33;;;;;;;;;;5016530;28;20071;-68
2022/02/17 13:17:12;;;;;;;9.73;1.98;;;;;;;;;;5014498;28;20045;-68
2022/02/17 13:19:40;;;;;;;13.10;1.83;;;;;;;;;;5023094;28;20192;-68
2022/02/17 13:22:19;;;;;;;7.43;1.48;;;;;;;;;;5015129;28;20045;-68
2022/02/17 13:24:56;;;;;;;6.25;1.05;;;;;;;;;;5021878;28;20701;-69
2022/02/17 13:27:27;;;;;;;9.63;1.50;;;;;;;;;;5005072;28;20049;-69
2022/02/17 13:29:53;;;;;;;13.13;1.52;;;;;;;;;;5020092;28;20049;-68
2022/02/17 13:32:21;;;;;;;9.45;1.75;;;;;;;;;;5020621;28;20053;-67
2022/02/17 13:34:47;;;;;;;8.50;1.40;;;;;;;;;;5026250;28;20178;-67
2022/02/17 13:37:16;;;;;;;13.23;1.58;;;;;;;;;;5020041;28;20132;-67
2022/02/17 13:39:55;;;;;;;20.02;2.33;;;;;;;;;;5010284;28;20268;-67
2022/02/17 13:42:21;;;;;;;10.45;1.73;;;;;;;;;;5016087;28;20526;-67
2022/02/17 13:44:53;;;;;;;10.30;2.30;;;;;;;;;;5009947;28;20053;-67
2022/02/17 13:47:21;;;;;;;11.10;1.73;;;;;;;;;;5019173;28;20478;-67
2022/02/17 13:49:57;;;;;;;6.70;1.60;;;;;;;;;;5016324;28;21000;-68
2022/02/17 13:52:28;;;;;;;8.05;1.50;;;;;;;;;;5019972;28;20049;-68
2022/02/17 13:54:56;;;;;;;16.08;1.92;;;;;;;;;;5011027;28;20073;-68
2022/02/17 13:57:24;;;;;;;12.18;1.85;;;;;;;;;;5013349;28;20742;-68
2022/02/17 13:59:51;;;;;;;12.40;2.13;;;;;;;;;;5021338;28;20057;-68
2022/02/17 14:02:25;;;;;;;10.88;1.70;;;;;;;;;;5014563;28;20086;-68
2022/02/17 14:04:56;;;;;;;13.65;1.60;;;;;;;;;;4999124;28;20041;-68
2022/02/17 14:07:22;;;;;;;9.40;1.40;;;;;;;;;;5008694;28;20049;-68
2022/02/17 14:09:48;;;;;;;5.15;1.13;;;;;;;;;;5017949;28;20046;-68
2022/02/17 14:12:35;;;;;;;10.23;1.48;;;;;;;;;;5018664;28;20060;-68
2022/02/17 14:15:03;;;;;;;7.78;1.33;;;;;;;;;;5015471;28;20050;-68
2022/02/17 14:17:33;;;;;;;8.02;1.20;;;;;;;;;;5021349;28;20056;-67
2022/02/17 14:19:59;;;;;;;;;;;;;;;;;;5011221;28;20421;-67
2022/02/17 14:22:26;;;;;;;7.15;1.30;;;;;;;;;;5010845;28;19925;-67
2022/02/17 14:24:53;;;;;;;7.28;1.40;;;;;;;;;;5009565;28;20049;-68
2022/02/17 14:27:20;;;;;;;12.05;1.55;;;;;;;;;;5019315;28;20084;-68
2022/02/17 14:29:46;;;;;;;8.57;1.92;;;;;;;;;;5013379;28;20057;-68
2022/02/17 14:32:12;;;;;;;7.13;1.50;;;;;;;;;;5019866;28;20049;-67
2022/02/17 14:37:30;;;;;;;5.72;1.10;;;;;;;;;;5006814;28;20049;-68
2022/02/17 14:39:57;;;;;;;7.40;1.38;;;;;;;;;;5018826;28;20065;-68
2022/02/17 14:42:23;;;;;;;9.75;1.40;;;;;;;;;;5012823;28;20883;-68
2022/02/17 14:44:49;;;;;;;7.10;1.40;;;;;;;;;;5020506;28;20048;-68
2022/02/17 14:47:16;;;;;;;8.95;1.70;;;;;;;;;;5018670;28;20531;-68
2022/02/17 14:49:49;;;;;;;5.53;1.42;;;;;;;;;;5014862;28;20052;-68